sensor_id;sensor_type;location;lat;lon;timestamp;P1;durP1;ratioP1;P2;durP2;ratioP2
14096;SDS011;7125;48.106;11.544;2023-06-04T00:01:10;10.50;;;9.47;;
14096;SDS011;7125;48.106;11.544;2023-06-04T00:03:37;15.33;;;10.23;;
14096;SDS011;7125;48.106;11.544;2023-06-04T00:06:04;10.00;;;9.03;;
14096;SDS011;7125;48.106;11.544;2023-06-04T00:08:30;10.63;;;9.63;;
14096;SDS011;7125;48.106;11.544;2023-06-04T00:10:57;12.07;;;8.68;;
14096;SDS011;7125;48.106;11.544;2023-06-04T00:13:28;10.57;;;9.07;;
14096;SDS011;7125;48.106;11.544;2023-06-04T00:15:55;10.03;;;9.03;;
14096;SDS011;7125;48.106;11.544;2023-06-04T00:18:22;12.73;;;8.80;;
14096;SDS011;7125;48.106;11.544;2023-06-04T00:20:49;9.60;;;8.60;;
14096;SDS011;7125;48.106;11.544;2023-06-04T00:23:16;9.90;;;8.63;;
14096;SDS011;7125;48.106;11.544;2023-06-04T00:25:42;9.15;;;8.13;;
14096;SDS011;7125;48.106;11.544;2023-06-04T00:28:10;9.40;;;8.50;;
14096;SDS011;7125;48.106;11.544;2023-06-04T00:30:38;8.40;;;7.50;;
14096;SDS011;7125;48.106;11.544;2023-06-04T00:33:05;8.27;;;7.40;;
14096;SDS011;7125;48.106;11.544;2023-06-04T00:35:32;9.75;;;8.10;;
14096;SDS011;7125;48.106;11.544;2023-06-04T00:37:59;10.00;;;8.67;;
14096;SDS011;7125;48.106;11.544;2023-06-04T00:40:25;8.93;;;8.07;;
14096;SDS011;7125;48.106;11.544;2023-06-04T00:42:52;8.83;;;7.87;;
14096;SDS011;7125;48.106;11.544;2023-06-04T00:45:20;8.87;;;7.87;;
14096;SDS011;7125;48.106;11.544;2023-06-04T00:47:52;8.30;;;7.50;;
14096;SDS011;7125;48.106;11.544;2023-06-04T00:50:20;10.47;;;7.47;;
14096;SDS011;7125;48.106;11.544;2023-06-04T00:52:48;9.53;;;7.63;;
14096;SDS011;7125;48.106;11.544;2023-06-04T00:55:15;10.03;;;6.97;;
14096;SDS011;7125;48.106;11.544;2023-06-04T00:57:43;10.40;;;6.53;;
14096;SDS011;7125;48.106;11.544;2023-06-04T01:00:11;7.37;;;6.60;;
14096;SDS011;7125;48.106;11.544;2023-06-04T01:02:40;7.87;;;6.60;;
14096;SDS011;7125;48.106;11.544;2023-06-04T01:05:14;7.60;;;6.53;;
14096;SDS011;7125;48.106;11.544;2023-06-04T01:07:46;6.83;;;6.10;;
14096;SDS011;7125;48.106;11.544;2023-06-04T01:10:14;10.13;;;6.63;;
14096;SDS011;7125;48.106;11.544;2023-06-04T01:12:42;6.30;;;5.67;;
14096;SDS011;7125;48.106;11.544;2023-06-04T01:15:09;6.27;;;5.67;;
14096;SDS011;7125;48.106;11.544;2023-06-04T01:17:39;7.00;;;5.87;;
14096;SDS011;7125;48.106;11.544;2023-06-04T01:20:20;7.32;;;5.93;;
14096;SDS011;7125;48.106;11.544;2023-06-04T01:22:58;8.70;;;6.27;;
14096;SDS011;7125;48.106;11.544;2023-06-04T01:25:38;6.45;;;5.82;;
14096;SDS011;7125;48.106;11.544;2023-06-04T01:28:06;9.63;;;6.23;;
14096;SDS011;7125;48.106;11.544;2023-06-04T01:30:36;5.80;;;5.20;;
14096;SDS011;7125;48.106;11.544;2023-06-04T01:33:08;7.20;;;5.60;;
14096;SDS011;7125;48.106;11.544;2023-06-04T01:35:38;6.70;;;6.03;;
14096;SDS011;7125;48.106;11.544;2023-06-04T01:38:05;6.60;;;5.43;;
14096;SDS011;7125;48.106;11.544;2023-06-04T01:40:32;7.77;;;5.47;;
14096;SDS011;7125;48.106;11.544;2023-06-04T01:43:01;7.13;;;5.50;;
14096;SDS011;7125;48.106;11.544;2023-06-04T01:45:28;5.70;;;4.93;;
14096;SDS011;7125;48.106;11.544;2023-06-04T01:47:56;7.00;;;6.07;;
14096;SDS011;7125;48.106;11.544;2023-06-04T01:50:23;8.23;;;5.50;;
14096;SDS011;7125;48.106;11.544;2023-06-04T01:52:53;6.00;;;5.50;;
14096;SDS011;7125;48.106;11.544;2023-06-04T01:55:20;6.27;;;5.67;;
14096;SDS011;7125;48.106;11.544;2023-06-04T01:57:50;5.97;;;5.37;;
14096;SDS011;7125;48.106;11.544;2023-06-04T02:00:18;8.83;;;5.90;;
14096;SDS011;7125;48.106;11.544;2023-06-04T02:02:45;5.47;;;4.97;;
14096;SDS011;7125;48.106;11.544;2023-06-04T02:05:13;5.53;;;5.00;;
14096;SDS011;7125;48.106;11.544;2023-06-04T02:07:41;7.60;;;5.27;;
14096;SDS011;7125;48.106;11.544;2023-06-04T02:10:12;6.70;;;5.07;;
14096;SDS011;7125;48.106;11.544;2023-06-04T02:12:51;10.30;;;5.83;;
14096;SDS011;7125;48.106;11.544;2023-06-04T02:15:20;6.90;;;6.10;;
14096;SDS011;7125;48.106;11.544;2023-06-04T02:17:48;8.97;;;6.97;;
14096;SDS011;7125;48.106;11.544;2023-06-04T02:20:16;8.20;;;5.77;;
14096;SDS011;7125;48.106;11.544;2023-06-04T02:22:43;7.07;;;5.80;;
14096;SDS011;7125;48.106;11.544;2023-06-04T02:25:11;6.50;;;5.90;;
14096;SDS011;7125;48.106;11.544;2023-06-04T02:27:38;6.83;;;6.10;;
14096;SDS011;7125;48.106;11.544;2023-06-04T02:30:05;8.57;;;6.87;;
14096;SDS011;7125;48.106;11.544;2023-06-04T02:32:33;10.80;;;6.23;;
14096;SDS011;7125;48.106;11.544;2023-06-04T02:35:01;6.97;;;6.23;;
14096;SDS011;7125;48.106;11.544;2023-06-04T02:37:29;6.83;;;6.23;;
14096;SDS011;7125;48.106;11.544;2023-06-04T02:39:56;7.03;;;6.33;;
14096;SDS011;7125;48.106;11.544;2023-06-04T02:42:24;6.63;;;6.03;;
14096;SDS011;7125;48.106;11.544;2023-06-04T02:44:52;6.50;;;5.90;;
14096;SDS011;7125;48.106;11.544;2023-06-04T02:47:18;7.53;;;5.37;;
14096;SDS011;7125;48.106;11.544;2023-06-04T02:49:46;8.20;;;6.77;;
14096;SDS011;7125;48.106;11.544;2023-06-04T02:52:13;7.60;;;6.77;;
14096;SDS011;7125;48.106;11.544;2023-06-04T02:54:40;7.37;;;6.60;;
14096;SDS011;7125;48.106;11.544;2023-06-04T02:57:07;6.37;;;5.77;;
14096;SDS011;7125;48.106;11.544;2023-06-04T02:59:36;7.57;;;6.87;;
14096;SDS011;7125;48.106;11.544;2023-06-04T03:02:03;8.27;;;6.43;;
14096;SDS011;7125;48.106;11.544;2023-06-04T03:04:31;7.47;;;6.57;;
14096;SDS011;7125;48.106;11.544;2023-06-04T03:07:00;9.60;;;6.37;;
14096;SDS011;7125;48.106;11.544;2023-06-04T03:09:27;7.67;;;6.93;;
14096;SDS011;7125;48.106;11.544;2023-06-04T03:11:56;8.77;;;7.27;;
14096;SDS011;7125;48.106;11.544;2023-06-04T03:14:28;7.43;;;6.53;;
14096;SDS011;7125;48.106;11.544;2023-06-04T03:16:59;6.97;;;6.37;;
14096;SDS011;7125;48.106;11.544;2023-06-04T03:19:32;7.37;;;6.20;;
14096;SDS011;7125;48.106;11.544;2023-06-04T03:22:00;7.17;;;6.40;;
14096;SDS011;7125;48.106;11.544;2023-06-04T03:24:32;7.70;;;5.60;;
14096;SDS011;7125;48.106;11.544;2023-06-04T03:27:01;6.03;;;5.43;;
14096;SDS011;7125;48.106;11.544;2023-06-04T03:29:29;7.97;;;6.17;;
14096;SDS011;7125;48.106;11.544;2023-06-04T03:31:59;6.70;;;6.00;;
14096;SDS011;7125;48.106;11.544;2023-06-04T03:34:27;7.57;;;6.77;;
14096;SDS011;7125;48.106;11.544;2023-06-04T03:36:56;7.53;;;6.10;;
14096;SDS011;7125;48.106;11.544;2023-06-04T03:39:25;6.90;;;6.10;;
14096;SDS011;7125;48.106;11.544;2023-06-04T03:41:53;8.23;;;6.43;;
14096;SDS011;7125;48.106;11.544;2023-06-04T03:44:22;8.13;;;6.77;;
14096;SDS011;7125;48.106;11.544;2023-06-04T03:46:50;7.63;;;6.47;;
14096;SDS011;7125;48.106;11.544;2023-06-04T03:49:19;7.50;;;6.00;;
14096;SDS011;7125;48.106;11.544;2023-06-04T03:51:48;7.27;;;6.57;;
14096;SDS011;7125;48.106;11.544;2023-06-04T03:54:15;7.53;;;6.83;;
14096;SDS011;7125;48.106;11.544;2023-06-04T03:56:44;7.43;;;6.63;;
14096;SDS011;7125;48.106;11.544;2023-06-04T03:59:11;7.13;;;6.43;;
14096;SDS011;7125;48.106;11.544;2023-06-04T04:01:39;7.43;;;6.37;;
14096;SDS011;7125;48.106;11.544;2023-06-04T04:04:07;7.27;;;6.47;;
14096;SDS011;7125;48.106;11.544;2023-06-04T04:06:35;7.73;;;5.83;;
14096;SDS011;7125;48.106;11.544;2023-06-04T04:09:03;7.07;;;6.37;;
14096;SDS011;7125;48.106;11.544;2023-06-04T04:11:31;6.57;;;5.97;;
14096;SDS011;7125;48.106;11.544;2023-06-04T04:13:58;7.13;;;6.43;;
14096;SDS011;7125;48.106;11.544;2023-06-04T04:16:26;7.40;;;6.70;;
14096;SDS011;7125;48.106;11.544;2023-06-04T04:18:53;10.10;;;6.13;;
14096;SDS011;7125;48.106;11.544;2023-06-04T04:21:20;7.00;;;6.40;;
14096;SDS011;7125;48.106;11.544;2023-06-04T04:23:49;7.33;;;6.63;;
14096;SDS011;7125;48.106;11.544;2023-06-04T04:26:18;6.80;;;6.20;;
14096;SDS011;7125;48.106;11.544;2023-06-04T04:28:49;7.43;;;6.30;;
14096;SDS011;7125;48.106;11.544;2023-06-04T04:31:17;8.20;;;7.40;;
14096;SDS011;7125;48.106;11.544;2023-06-04T04:33:44;7.23;;;6.53;;
14096;SDS011;7125;48.106;11.544;2023-06-04T04:36:12;7.40;;;6.57;;
14096;SDS011;7125;48.106;11.544;2023-06-04T04:38:44;6.83;;;6.20;;
14096;SDS011;7125;48.106;11.544;2023-06-04T04:41:12;7.07;;;6.47;;
14096;SDS011;7125;48.106;11.544;2023-06-04T04:43:40;6.30;;;5.77;;
14096;SDS011;7125;48.106;11.544;2023-06-04T04:46:19;10.10;;;6.20;;
14096;SDS011;7125;48.106;11.544;2023-06-04T04:48:46;6.53;;;5.63;;
14096;SDS011;7125;48.106;11.544;2023-06-04T04:51:15;8.03;;;6.47;;
14096;SDS011;7125;48.106;11.544;2023-06-04T04:53:42;8.70;;;6.00;;
14096;SDS011;7125;48.106;11.544;2023-06-04T04:56:09;7.83;;;6.37;;
14096;SDS011;7125;48.106;11.544;2023-06-04T04:58:41;6.70;;;6.10;;
14096;SDS011;7125;48.106;11.544;2023-06-04T05:01:09;8.13;;;6.07;;
14096;SDS011;7125;48.106;11.544;2023-06-04T05:03:38;6.90;;;6.17;;
14096;SDS011;7125;48.106;11.544;2023-06-04T05:06:05;6.57;;;5.80;;
14096;SDS011;7125;48.106;11.544;2023-06-04T05:08:33;6.90;;;6.27;;
14096;SDS011;7125;48.106;11.544;2023-06-04T05:11:00;8.13;;;5.40;;
14096;SDS011;7125;48.106;11.544;2023-06-04T05:13:27;5.30;;;4.80;;
14096;SDS011;7125;48.106;11.544;2023-06-04T05:16:01;6.70;;;5.03;;
14096;SDS011;7125;48.106;11.544;2023-06-04T05:18:31;6.80;;;4.20;;
14096;SDS011;7125;48.106;11.544;2023-06-04T05:21:01;4.87;;;3.93;;
14096;SDS011;7125;48.106;11.544;2023-06-04T05:23:30;6.40;;;3.80;;
14096;SDS011;7125;48.106;11.544;2023-06-04T05:25:59;4.43;;;4.00;;
14096;SDS011;7125;48.106;11.544;2023-06-04T05:28:27;5.20;;;4.00;;
14096;SDS011;7125;48.106;11.544;2023-06-04T05:30:54;6.60;;;3.63;;
14096;SDS011;7125;48.106;11.544;2023-06-04T05:33:27;7.20;;;4.17;;
14096;SDS011;7125;48.106;11.544;2023-06-04T05:36:00;5.23;;;3.07;;
14096;SDS011;7125;48.106;11.544;2023-06-04T05:38:32;5.63;;;3.73;;
14096;SDS011;7125;48.106;11.544;2023-06-04T05:41:04;5.93;;;3.40;;
14096;SDS011;7125;48.106;11.544;2023-06-04T05:43:34;4.90;;;3.20;;
14096;SDS011;7125;48.106;11.544;2023-06-04T05:46:02;8.63;;;3.70;;
14096;SDS011;7125;48.106;11.544;2023-06-04T05:48:30;4.90;;;3.63;;
14096;SDS011;7125;48.106;11.544;2023-06-04T05:50:57;3.30;;;2.67;;
14096;SDS011;7125;48.106;11.544;2023-06-04T05:53:24;4.07;;;3.03;;
14096;SDS011;7125;48.106;11.544;2023-06-04T05:55:51;4.10;;;3.80;;
14096;SDS011;7125;48.106;11.544;2023-06-04T05:58:18;4.60;;;3.22;;
14096;SDS011;7125;48.106;11.544;2023-06-04T06:00:45;3.17;;;2.88;;
14096;SDS011;7125;48.106;11.544;2023-06-04T06:03:13;4.03;;;3.27;;
14096;SDS011;7125;48.106;11.544;2023-06-04T06:05:46;4.75;;;4.03;;
14096;SDS011;7125;48.106;11.544;2023-06-04T06:08:13;5.70;;;3.97;;
14096;SDS011;7125;48.106;11.544;2023-06-04T06:10:40;5.22;;;2.90;;
14096;SDS011;7125;48.106;11.544;2023-06-04T06:13:07;2.78;;;2.58;;
14096;SDS011;7125;48.106;11.544;2023-06-04T06:15:34;5.25;;;3.13;;
14096;SDS011;7125;48.106;11.544;2023-06-04T06:18:01;4.32;;;2.53;;
14096;SDS011;7125;48.106;11.544;2023-06-04T06:20:28;3.88;;;3.38;;
14096;SDS011;7125;48.106;11.544;2023-06-04T06:22:56;4.35;;;3.28;;
14096;SDS011;7125;48.106;11.544;2023-06-04T06:25:24;3.30;;;3.05;;
14096;SDS011;7125;48.106;11.544;2023-06-04T06:27:57;2.90;;;2.60;;
14096;SDS011;7125;48.106;11.544;2023-06-04T06:30:26;5.68;;;3.35;;
14096;SDS011;7125;48.106;11.544;2023-06-04T06:32:53;7.07;;;3.28;;
14096;SDS011;7125;48.106;11.544;2023-06-04T06:35:21;3.40;;;3.10;;
14096;SDS011;7125;48.106;11.544;2023-06-04T06:37:48;5.30;;;4.13;;
14096;SDS011;7125;48.106;11.544;2023-06-04T06:40:16;4.60;;;3.85;;
14096;SDS011;7125;48.106;11.544;2023-06-04T06:42:47;6.03;;;3.55;;
14096;SDS011;7125;48.106;11.544;2023-06-04T06:45:16;4.55;;;3.70;;
14096;SDS011;7125;48.106;11.544;2023-06-04T06:47:44;3.03;;;2.80;;
14096;SDS011;7125;48.106;11.544;2023-06-04T06:50:11;3.58;;;3.28;;
14096;SDS011;7125;48.106;11.544;2023-06-04T06:52:38;5.65;;;2.88;;
14096;SDS011;7125;48.106;11.544;2023-06-04T06:55:05;4.50;;;3.28;;
14096;SDS011;7125;48.106;11.544;2023-06-04T06:57:34;5.43;;;3.40;;
14096;SDS011;7125;48.106;11.544;2023-06-04T07:00:00;3.75;;;3.45;;
14096;SDS011;7125;48.106;11.544;2023-06-04T07:02:28;3.40;;;3.10;;
14096;SDS011;7125;48.106;11.544;2023-06-04T07:04:55;3.65;;;2.75;;
14096;SDS011;7125;48.106;11.544;2023-06-04T07:07:22;9.02;;;3.42;;
14096;SDS011;7125;48.106;11.544;2023-06-04T07:09:49;5.30;;;2.90;;
14096;SDS011;7125;48.106;11.544;2023-06-04T07:12:16;7.60;;;3.92;;
14096;SDS011;7125;48.106;11.544;2023-06-04T07:14:45;4.88;;;3.22;;
14096;SDS011;7125;48.106;11.544;2023-06-04T07:17:12;3.67;;;3.28;;
14096;SDS011;7125;48.106;11.544;2023-06-04T07:19:39;6.03;;;3.08;;
14096;SDS011;7125;48.106;11.544;2023-06-04T07:22:05;3.75;;;3.45;;
14096;SDS011;7125;48.106;11.544;2023-06-04T07:24:32;4.10;;;3.65;;
14096;SDS011;7125;48.106;11.544;2023-06-04T07:26:59;4.68;;;4.13;;
14096;SDS011;7125;48.106;11.544;2023-06-04T07:29:26;4.28;;;3.25;;
14096;SDS011;7125;48.106;11.544;2023-06-04T07:31:54;4.07;;;3.53;;
14096;SDS011;7125;48.106;11.544;2023-06-04T07:34:21;4.65;;;3.80;;
14096;SDS011;7125;48.106;11.544;2023-06-04T07:36:48;3.47;;;3.17;;
14096;SDS011;7125;48.106;11.544;2023-06-04T07:39:15;4.82;;;3.33;;
14096;SDS011;7125;48.106;11.544;2023-06-04T07:41:42;6.97;;;4.00;;
14096;SDS011;7125;48.106;11.544;2023-06-04T07:44:09;5.28;;;3.45;;
14096;SDS011;7125;48.106;11.544;2023-06-04T07:46:36;3.40;;;2.70;;
14096;SDS011;7125;48.106;11.544;2023-06-04T07:49:04;4.00;;;3.38;;
14096;SDS011;7125;48.106;11.544;2023-06-04T07:51:31;5.28;;;3.22;;
14096;SDS011;7125;48.106;11.544;2023-06-04T07:53:58;6.43;;;3.60;;
14096;SDS011;7125;48.106;11.544;2023-06-04T07:56:25;4.75;;;3.50;;
14096;SDS011;7125;48.106;11.544;2023-06-04T07:58:52;4.63;;;3.58;;
14096;SDS011;7125;48.106;11.544;2023-06-04T08:01:19;4.72;;;3.33;;
14096;SDS011;7125;48.106;11.544;2023-06-04T08:03:46;9.30;;;3.80;;
14096;SDS011;7125;48.106;11.544;2023-06-04T08:06:14;3.42;;;3.00;;
14096;SDS011;7125;48.106;11.544;2023-06-04T08:08:42;7.72;;;2.70;;
14096;SDS011;7125;48.106;11.544;2023-06-04T08:11:10;3.53;;;3.15;;
14096;SDS011;7125;48.106;11.544;2023-06-04T08:13:39;6.10;;;3.33;;
14096;SDS011;7125;48.106;11.544;2023-06-04T08:16:06;4.53;;;3.03;;
14096;SDS011;7125;48.106;11.544;2023-06-04T08:18:37;4.13;;;3.03;;
14096;SDS011;7125;48.106;11.544;2023-06-04T08:21:04;3.75;;;3.20;;
14096;SDS011;7125;48.106;11.544;2023-06-04T08:23:32;8.15;;;3.17;;
14096;SDS011;7125;48.106;11.544;2023-06-04T08:25:59;3.75;;;2.92;;
14096;SDS011;7125;48.106;11.544;2023-06-04T08:28:26;4.03;;;3.10;;
14096;SDS011;7125;48.106;11.544;2023-06-04T08:30:53;3.30;;;2.97;;
14096;SDS011;7125;48.106;11.544;2023-06-04T08:33:20;5.38;;;3.83;;
14096;SDS011;7125;48.106;11.544;2023-06-04T08:35:47;3.17;;;2.90;;
14096;SDS011;7125;48.106;11.544;2023-06-04T08:38:14;3.70;;;3.17;;
14096;SDS011;7125;48.106;11.544;2023-06-04T08:40:42;4.05;;;3.10;;
14096;SDS011;7125;48.106;11.544;2023-06-04T08:43:09;5.80;;;2.80;;
14096;SDS011;7125;48.106;11.544;2023-06-04T08:45:38;5.95;;;3.15;;
14096;SDS011;7125;48.106;11.544;2023-06-04T08:48:07;5.60;;;3.08;;
14096;SDS011;7125;48.106;11.544;2023-06-04T08:50:37;3.50;;;3.20;;
14096;SDS011;7125;48.106;11.544;2023-06-04T08:53:10;3.95;;;3.25;;
14096;SDS011;7125;48.106;11.544;2023-06-04T08:55:39;2.97;;;2.78;;
14096;SDS011;7125;48.106;11.544;2023-06-04T08:58:07;5.70;;;3.22;;
14096;SDS011;7125;48.106;11.544;2023-06-04T09:00:36;5.38;;;2.92;;
14096;SDS011;7125;48.106;11.544;2023-06-04T09:03:03;4.65;;;3.33;;
14096;SDS011;7125;48.106;11.544;2023-06-04T09:05:30;3.83;;;3.17;;
14096;SDS011;7125;48.106;11.544;2023-06-04T09:08:00;3.40;;;3.10;;
14096;SDS011;7125;48.106;11.544;2023-06-04T09:10:28;3.28;;;2.60;;
14096;SDS011;7125;48.106;11.544;2023-06-04T09:12:59;10.45;;;4.18;;
14096;SDS011;7125;48.106;11.544;2023-06-04T09:15:30;4.15;;;2.85;;
14096;SDS011;7125;48.106;11.544;2023-06-04T09:17:57;3.50;;;2.67;;
14096;SDS011;7125;48.106;11.544;2023-06-04T09:20:24;3.88;;;3.53;;
14096;SDS011;7125;48.106;11.544;2023-06-04T09:22:51;3.20;;;2.50;;
14096;SDS011;7125;48.106;11.544;2023-06-04T09:25:19;4.70;;;3.35;;
14096;SDS011;7125;48.106;11.544;2023-06-04T09:27:47;3.92;;;3.33;;
14096;SDS011;7125;48.106;11.544;2023-06-04T09:30:14;3.42;;;3.10;;
14096;SDS011;7125;48.106;11.544;2023-06-04T09:32:42;6.63;;;2.55;;
14096;SDS011;7125;48.106;11.544;2023-06-04T09:35:10;3.55;;;2.72;;
14096;SDS011;7125;48.106;11.544;2023-06-04T09:37:39;4.45;;;3.67;;
14096;SDS011;7125;48.106;11.544;2023-06-04T09:40:06;4.68;;;3.70;;
14096;SDS011;7125;48.106;11.544;2023-06-04T09:42:41;6.03;;;3.80;;
14096;SDS011;7125;48.106;11.544;2023-06-04T09:45:09;5.63;;;3.63;;
14096;SDS011;7125;48.106;11.544;2023-06-04T09:47:40;6.18;;;3.10;;
14096;SDS011;7125;48.106;11.544;2023-06-04T09:50:10;4.47;;;3.17;;
14096;SDS011;7125;48.106;11.544;2023-06-04T09:52:37;8.68;;;3.03;;
14096;SDS011;7125;48.106;11.544;2023-06-04T09:55:16;4.60;;;3.13;;
14096;SDS011;7125;48.106;11.544;2023-06-04T09:57:46;3.92;;;3.25;;
14096;SDS011;7125;48.106;11.544;2023-06-04T10:00:15;4.47;;;3.08;;
14096;SDS011;7125;48.106;11.544;2023-06-04T10:02:45;3.78;;;2.75;;
14096;SDS011;7125;48.106;11.544;2023-06-04T10:05:13;5.07;;;3.05;;
14096;SDS011;7125;48.106;11.544;2023-06-04T10:07:42;5.32;;;3.28;;
14096;SDS011;7125;48.106;11.544;2023-06-04T10:10:11;10.88;;;3.95;;
14096;SDS011;7125;48.106;11.544;2023-06-04T10:12:41;5.35;;;3.70;;
14096;SDS011;7125;48.106;11.544;2023-06-04T10:15:11;7.05;;;3.50;;
14096;SDS011;7125;48.106;11.544;2023-06-04T10:17:39;5.63;;;3.50;;
14096;SDS011;7125;48.106;11.544;2023-06-04T10:20:08;3.80;;;3.30;;
14096;SDS011;7125;48.106;11.544;2023-06-04T10:22:36;3.78;;;3.08;;
14096;SDS011;7125;48.106;11.544;2023-06-04T10:25:04;3.08;;;2.85;;
14096;SDS011;7125;48.106;11.544;2023-06-04T10:27:31;4.68;;;3.00;;
14096;SDS011;7125;48.106;11.544;2023-06-04T10:30:00;3.08;;;2.78;;
14096;SDS011;7125;48.106;11.544;2023-06-04T10:32:28;4.30;;;2.92;;
14096;SDS011;7125;48.106;11.544;2023-06-04T10:34:56;3.30;;;3.03;;
14096;SDS011;7125;48.106;11.544;2023-06-04T10:37:25;2.95;;;2.38;;
14096;SDS011;7125;48.106;11.544;2023-06-04T10:39:55;4.32;;;3.20;;
14096;SDS011;7125;48.106;11.544;2023-06-04T10:42:23;3.55;;;2.70;;
14096;SDS011;7125;48.106;11.544;2023-06-04T10:44:51;6.88;;;3.05;;
14096;SDS011;7125;48.106;11.544;2023-06-04T10:47:19;4.20;;;2.85;;
14096;SDS011;7125;48.106;11.544;2023-06-04T10:49:47;6.10;;;3.03;;
14096;SDS011;7125;48.106;11.544;2023-06-04T10:52:15;2.92;;;2.72;;
14096;SDS011;7125;48.106;11.544;2023-06-04T10:54:44;4.25;;;3.15;;
14096;SDS011;7125;48.106;11.544;2023-06-04T10:57:14;3.92;;;3.00;;
14096;SDS011;7125;48.106;11.544;2023-06-04T10:59:41;3.30;;;2.88;;
14096;SDS011;7125;48.106;11.544;2023-06-04T11:02:19;3.58;;;3.15;;
14096;SDS011;7125;48.106;11.544;2023-06-04T11:04:46;5.50;;;3.45;;
14096;SDS011;7125;48.106;11.544;2023-06-04T11:07:14;5.20;;;3.45;;
14096;SDS011;7125;48.106;11.544;2023-06-04T11:09:48;4.03;;;3.10;;
14096;SDS011;7125;48.106;11.544;2023-06-04T11:12:16;3.65;;;3.35;;
14096;SDS011;7125;48.106;11.544;2023-06-04T11:14:53;3.92;;;3.17;;
14096;SDS011;7125;48.106;11.544;2023-06-04T11:17:20;4.13;;;3.40;;
14096;SDS011;7125;48.106;11.544;2023-06-04T11:19:47;3.78;;;3.47;;
14096;SDS011;7125;48.106;11.544;2023-06-04T11:22:14;3.42;;;3.13;;
14096;SDS011;7125;48.106;11.544;2023-06-04T11:24:41;4.60;;;3.03;;
14096;SDS011;7125;48.106;11.544;2023-06-04T11:27:09;5.72;;;3.25;;
14096;SDS011;7125;48.106;11.544;2023-06-04T11:29:36;3.25;;;2.83;;
14096;SDS011;7125;48.106;11.544;2023-06-04T11:32:03;5.43;;;3.33;;
14096;SDS011;7125;48.106;11.544;2023-06-04T11:34:31;7.72;;;3.45;;
14096;SDS011;7125;48.106;11.544;2023-06-04T11:37:07;3.70;;;2.83;;
14096;SDS011;7125;48.106;11.544;2023-06-04T11:39:35;5.00;;;2.83;;
14096;SDS011;7125;48.106;11.544;2023-06-04T11:42:04;7.45;;;3.42;;
14096;SDS011;7125;48.106;11.544;2023-06-04T11:44:33;4.55;;;3.78;;
14096;SDS011;7125;48.106;11.544;2023-06-04T11:47:00;5.05;;;3.95;;
14096;SDS011;7125;48.106;11.544;2023-06-04T11:49:33;4.78;;;3.75;;
14096;SDS011;7125;48.106;11.544;2023-06-04T11:52:01;3.65;;;3.33;;
14096;SDS011;7125;48.106;11.544;2023-06-04T11:54:28;3.22;;;2.63;;
14096;SDS011;7125;48.106;11.544;2023-06-04T11:56:55;6.18;;;3.58;;
14096;SDS011;7125;48.106;11.544;2023-06-04T11:59:23;4.72;;;3.20;;
14096;SDS011;7125;48.106;11.544;2023-06-04T12:01:51;3.97;;;3.67;;
14096;SDS011;7125;48.106;11.544;2023-06-04T12:04:19;5.38;;;3.53;;
14096;SDS011;7125;48.106;11.544;2023-06-04T12:06:52;3.45;;;3.15;;
14096;SDS011;7125;48.106;11.544;2023-06-04T12:09:20;3.17;;;2.92;;
14096;SDS011;7125;48.106;11.544;2023-06-04T12:11:47;3.75;;;3.42;;
14096;SDS011;7125;48.106;11.544;2023-06-04T12:14:15;3.38;;;3.08;;
14096;SDS011;7125;48.106;11.544;2023-06-04T12:16:43;4.07;;;3.17;;
14096;SDS011;7125;48.106;11.544;2023-06-04T12:19:22;3.78;;;3.05;;
14096;SDS011;7125;48.106;11.544;2023-06-04T12:21:58;3.90;;;3.50;;
14096;SDS011;7125;48.106;11.544;2023-06-04T12:24:26;4.85;;;3.53;;
14096;SDS011;7125;48.106;11.544;2023-06-04T12:27:00;3.58;;;3.28;;
14096;SDS011;7125;48.106;11.544;2023-06-04T12:29:28;5.32;;;3.65;;
14096;SDS011;7125;48.106;11.544;2023-06-04T12:32:03;6.38;;;3.60;;
14096;SDS011;7125;48.106;11.544;2023-06-04T12:34:33;3.35;;;2.88;;
14096;SDS011;7125;48.106;11.544;2023-06-04T12:37:00;6.40;;;3.83;;
14096;SDS011;7125;48.106;11.544;2023-06-04T12:39:28;4.05;;;3.15;;
14096;SDS011;7125;48.106;11.544;2023-06-04T12:41:55;4.47;;;4.07;;
14096;SDS011;7125;48.106;11.544;2023-06-04T12:44:22;5.22;;;4.07;;
14096;SDS011;7125;48.106;11.544;2023-06-04T12:46:50;5.68;;;3.25;;
14096;SDS011;7125;48.106;11.544;2023-06-04T12:49:19;7.00;;;4.93;;
14096;SDS011;7125;48.106;11.544;2023-06-04T12:51:46;5.80;;;5.20;;
14096;SDS011;7125;48.106;11.544;2023-06-04T12:54:13;5.78;;;4.80;;
14096;SDS011;7125;48.106;11.544;2023-06-04T12:56:39;3.70;;;3.45;;
14096;SDS011;7125;48.106;11.544;2023-06-04T12:59:07;4.47;;;3.60;;
14096;SDS011;7125;48.106;11.544;2023-06-04T13:01:34;3.28;;;3.03;;
14096;SDS011;7125;48.106;11.544;2023-06-04T13:04:04;4.85;;;3.40;;
14096;SDS011;7125;48.106;11.544;2023-06-04T13:06:33;3.65;;;3.22;;
14096;SDS011;7125;48.106;11.544;2023-06-04T13:09:03;4.93;;;3.90;;
14096;SDS011;7125;48.106;11.544;2023-06-04T13:11:34;5.07;;;3.42;;
14096;SDS011;7125;48.106;11.544;2023-06-04T13:14:01;3.92;;;3.60;;
14096;SDS011;7125;48.106;11.544;2023-06-04T13:16:28;7.60;;;3.35;;
14096;SDS011;7125;48.106;11.544;2023-06-04T13:18:55;5.60;;;4.95;;
14096;SDS011;7125;48.106;11.544;2023-06-04T13:21:22;5.35;;;4.53;;
14096;SDS011;7125;48.106;11.544;2023-06-04T13:23:50;5.55;;;5.05;;
14096;SDS011;7125;48.106;11.544;2023-06-04T13:26:17;5.80;;;4.07;;
14096;SDS011;7125;48.106;11.544;2023-06-04T13:28:44;6.00;;;4.35;;
14096;SDS011;7125;48.106;11.544;2023-06-04T13:31:11;5.93;;;4.25;;
14096;SDS011;7125;48.106;11.544;2023-06-04T13:33:38;4.18;;;3.78;;
14096;SDS011;7125;48.106;11.544;2023-06-04T13:36:05;12.02;;;3.95;;
14096;SDS011;7125;48.106;11.544;2023-06-04T13:38:32;6.95;;;3.97;;
14096;SDS011;7125;48.106;11.544;2023-06-04T13:41:01;6.88;;;3.95;;
14096;SDS011;7125;48.106;11.544;2023-06-04T13:43:29;3.90;;;3.60;;
14096;SDS011;7125;48.106;11.544;2023-06-04T13:45:56;4.25;;;3.85;;
14096;SDS011;7125;48.106;11.544;2023-06-04T13:48:23;4.32;;;3.92;;
14096;SDS011;7125;48.106;11.544;2023-06-04T13:50:49;4.60;;;3.78;;
14096;SDS011;7125;48.106;11.544;2023-06-04T13:53:17;3.50;;;3.15;;
14096;SDS011;7125;48.106;11.544;2023-06-04T13:55:44;4.72;;;3.65;;
14096;SDS011;7125;48.106;11.544;2023-06-04T13:58:12;5.75;;;4.68;;
14096;SDS011;7125;48.106;11.544;2023-06-04T14:00:40;5.70;;;4.93;;
14096;SDS011;7125;48.106;11.544;2023-06-04T14:03:07;4.15;;;3.75;;
14096;SDS011;7125;48.106;11.544;2023-06-04T14:05:34;4.55;;;4.15;;
14096;SDS011;7125;48.106;11.544;2023-06-04T14:08:01;6.00;;;3.75;;
14096;SDS011;7125;48.106;11.544;2023-06-04T14:10:28;4.57;;;3.28;;
14096;SDS011;7125;48.106;11.544;2023-06-04T14:12:55;5.50;;;3.47;;
14096;SDS011;7125;48.106;11.544;2023-06-04T14:15:23;5.00;;;3.58;;
14096;SDS011;7125;48.106;11.544;2023-06-04T14:17:50;6.18;;;3.80;;
14096;SDS011;7125;48.106;11.544;2023-06-04T14:20:17;3.25;;;2.95;;
14096;SDS011;7125;48.106;11.544;2023-06-04T14:22:44;9.10;;;4.13;;
14096;SDS011;7125;48.106;11.544;2023-06-04T14:25:10;4.30;;;3.80;;
14096;SDS011;7125;48.106;11.544;2023-06-04T14:27:38;4.03;;;3.63;;
14096;SDS011;7125;48.106;11.544;2023-06-04T14:30:06;3.90;;;3.35;;
14096;SDS011;7125;48.106;11.544;2023-06-04T14:32:35;6.57;;;4.05;;
14096;SDS011;7125;48.106;11.544;2023-06-04T14:35:03;3.88;;;3.47;;
14096;SDS011;7125;48.106;11.544;2023-06-04T14:37:31;5.63;;;3.67;;
14096;SDS011;7125;48.106;11.544;2023-06-04T14:39:58;3.65;;;3.22;;
14096;SDS011;7125;48.106;11.544;2023-06-04T14:42:25;3.80;;;3.40;;
14096;SDS011;7125;48.106;11.544;2023-06-04T14:44:52;4.20;;;3.80;;
14096;SDS011;7125;48.106;11.544;2023-06-04T14:47:19;5.20;;;3.03;;
14096;SDS011;7125;48.106;11.544;2023-06-04T14:49:47;7.60;;;3.38;;
14096;SDS011;7125;48.106;11.544;2023-06-04T14:52:14;4.68;;;3.20;;
14096;SDS011;7125;48.106;11.544;2023-06-04T14:54:41;6.93;;;3.08;;